Time;durP1;ratioP1;P1;durP2;ratioP2;P2;SDS_P1;SDS_P2;PMS_P1;PMS_P2;Temp;Humidity;BMP_temperature;BMP_pressure;BME280_temperature;BME280_humidity;BME280_pressure;Samples;Min_cycle;Max_cycle;Signal;HPM_P1;HPM_P2
2023/10/18 00:01:10;;;;;;;5.90;5.07;;;;;;;;;;5130920;27;20210;-35
2023/10/18 00:03:37;;;;;;;9.63;6.73;;;;;;;;;;5133979;27;20195;-39
2023/10/18 00:06:11;;;;;;;8.23;6.33;;;;;;;;;;5133764;27;20238;-42
2023/10/18 00:08:39;;;;;;;7.40;6.07;;;;;;;;;;5119406;28;20229;-36
2023/10/18 00:11:06;;;;;;;7.27;5.97;;;;;;;;;;5137366;27;20203;-35
2023/10/18 00:13:35;;;;;;;6.57;5.70;;;;;;;;;;5117351;27;20298;-39
2023/10/18 00:16:03;;;;;;;7.00;5.87;;;;;;;;;;5135171;27;20290;-38
2023/10/18 00:18:30;;;;;;;8.47;6.40;;;;;;;;;;5136639;27;20223;-35
2023/10/18 00:21:00;;;;;;;10.53;7.30;;;;;;;;;;5135222;27;20217;-36
2023/10/18 00:23:28;;;;;;;10.37;7.47;;;;;;;;;;5131786;27;20207;-34
2023/10/18 00:25:55;;;;;;;9.07;6.83;;;;;;;;;;5143448;27;20203;-34
2023/10/18 00:28:22;;;;;;;10.00;7.17;;;;;;;;;;5123777;27;20660;-34
2023/10/18 00:30:52;;;;;;;8.40;7.30;;;;;;;;;;5139102;27;20290;-40
2023/10/18 00:33:19;;;;;;;7.60;5.73;;;;;;;;;;5133207;27;20207;-40
2023/10/18 00:35:47;;;;;;;9.50;6.17;;;;;;;;;;5129431;27;20288;-39
2023/10/18 00:38:17;;;;;;;6.47;5.57;;;;;;;;;;5141576;27;20249;-39
2023/10/18 00:40:45;;;;;;;6.70;5.60;;;;;;;;;;5134597;27;20222;-38
2023/10/18 00:43:19;;;;;;;8.97;6.10;;;;;;;;;;5118840;27;20275;-36
2023/10/18 00:45:47;;;;;;;9.30;7.10;;;;;;;;;;5131724;27;20205;-38
2023/10/18 00:48:17;;;;;;;7.53;5.20;;;;;;;;;;5139465;27;20263;-37
2023/10/18 00:50:45;;;;;;;9.17;6.33;;;;;;;;;;5139694;27;20210;-40
2023/10/18 00:53:13;;;;;;;8.70;6.30;;;;;;;;;;5130799;27;20204;-41
2023/10/18 00:55:40;;;;;;;6.63;5.70;;;;;;;;;;5142423;27;20231;-40
2023/10/18 00:58:08;;;;;;;7.60;5.50;;;;;;;;;;5125270;27;20236;-42
2023/10/18 01:00:37;;;;;;;8.37;6.67;;;;;;;;;;5128845;27;20200;-35
2023/10/18 01:03:09;;;;;;;9.83;6.53;;;;;;;;;;5129614;27;20260;-38
2023/10/18 01:05:38;;;;;;;9.43;6.03;;;;;;;;;;5137407;27;20191;-40
2023/10/18 01:08:10;;;;;;;9.40;6.60;;;;;;;;;;5144799;27;20253;-37
2023/10/18 01:10:38;;;;;;;8.80;7.03;;;;;;;;;;5125283;27;20196;-36
2023/10/18 01:13:06;;;;;;;7.00;5.83;;;;;;;;;;5124916;27;20199;-40
2023/10/18 01:15:34;;;;;;;8.37;7.33;;;;;;;;;;5136928;27;20199;-41
2023/10/18 01:18:01;;;;;;;9.70;7.40;;;;;;;;;;5133353;27;20230;-36
2023/10/18 01:20:39;;;;;;;9.47;7.37;;;;;;;;;;5127968;27;20697;-34
2023/10/18 01:23:09;;;;;;;11.23;7.37;;;;;;;;;;5124631;27;20199;-34
2023/10/18 01:25:38;;;;;;;7.27;5.83;;;;;;;;;;5126663;27;20595;-42
2023/10/18 01:28:06;;;;;;;7.70;5.93;;;;;;;;;;5122376;27;20297;-37
2023/10/18 01:30:33;;;;;;;10.77;7.47;;;;;;;;;;5132141;27;20207;-38
2023/10/18 01:33:04;;;;;;;9.50;6.83;;;;;;;;;;5132295;27;20672;-40
2023/10/18 01:35:31;;;;;;;8.13;6.37;;;;;;;;;;5131421;27;20204;-36
2023/10/18 01:38:00;;;;;;;8.33;6.13;;;;;;;;;;5132121;27;20253;-40
2023/10/18 01:40:41;;;;;;;7.13;6.43;;;;;;;;;;5132563;27;20223;-39
2023/10/18 01:43:11;;;;;;;8.80;6.60;;;;;;;;;;5121137;27;20200;-39
2023/10/18 01:45:38;;;;;;;8.73;6.87;;;;;;;;;;5129915;27;20209;-40
2023/10/18 01:48:09;;;;;;;11.70;7.93;;;;;;;;;;5142430;27;20289;-36
2023/10/18 01:50:38;;;;;;;9.97;7.73;;;;;;;;;;5128229;27;20198;-40
2023/10/18 01:53:15;;;;;;;9.80;7.50;;;;;;;;;;5119946;27;20578;-35
2023/10/18 01:55:43;;;;;;;8.53;6.83;;;;;;;;;;5125827;27;20231;-38
2023/10/18 01:58:13;;;;;;;6.73;6.03;;;;;;;;;;5118614;27;20232;-40
2023/10/18 02:00:44;;;;;;;11.10;8.03;;;;;;;;;;5133405;27;20257;-35
2023/10/18 02:03:12;;;;;;;8.53;6.10;;;;;;;;;;5138134;27;20293;-38
2023/10/18 02:05:40;;;;;;;10.20;7.67;;;;;;;;;;5124233;27;20203;-35
2023/10/18 02:08:07;;;;;;;6.53;5.83;;;;;;;;;;5131030;27;20203;-36
2023/10/18 02:10:34;;;;;;;7.83;6.20;;;;;;;;;;5142801;27;20201;-39
2023/10/18 02:13:05;;;;;;;9.00;7.10;;;;;;;;;;5119962;27;20214;-32
2023/10/18 02:15:33;;;;;;;9.97;7.17;;;;;;;;;;5142743;27;20227;-35
2023/10/18 02:18:02;;;;;;;7.53;5.60;;;;;;;;;;5136094;27;20233;-38
2023/10/18 02:20:31;;;;;;;9.03;6.73;;;;;;;;;;5138579;27;20567;-39
2023/10/18 02:23:00;;;;;;;8.13;7.07;;;;;;;;;;5129449;27;20287;-33
2023/10/18 02:25:44;;;;;;;9.40;7.00;;;;;;;;;;5132882;27;20199;-33
2023/10/18 02:28:22;;;;;;;8.70;7.17;;;;;;;;;;5126081;27;20218;-33
2023/10/18 02:30:55;;;;;;;12.87;7.97;;;;;;;;;;5127888;27;20297;-37
2023/10/18 02:33:24;;;;;;;8.83;7.63;;;;;;;;;;5139707;27;20207;-38
2023/10/18 02:35:51;;;;;;;10.73;7.47;;;;;;;;;;5125010;27;20204;-36
2023/10/18 02:38:20;;;;;;;9.83;7.10;;;;;;;;;;5128017;27;20222;-37
2023/10/18 02:40:49;;;;;;;9.43;7.67;;;;;;;;;;5145251;27;20215;-38
2023/10/18 02:43:16;;;;;;;7.90;5.97;;;;;;;;;;5113566;27;20211;-35
2023/10/18 02:45:50;;;;;;;13.10;8.60;;;;;;;;;;5127289;27;20202;-38
2023/10/18 02:48:24;;;;;;;8.70;6.93;;;;;;;;;;5129051;27;20294;-40
2023/10/18 02:50:52;;;;;;;9.57;6.00;;;;;;;;;;5129201;27;20226;-31
2023/10/18 02:53:20;;;;;;;10.63;7.77;;;;;;;;;;5122334;27;20231;-37
2023/10/18 02:55:55;;;;;;;8.20;6.63;;;;;;;;;;5122229;27;20199;-39
2023/10/18 02:58:22;;;;;;;8.80;6.47;;;;;;;;;;5123857;27;20221;-41
2023/10/18 03:00:50;;;;;;;7.97;7.10;;;;;;;;;;5133399;27;20210;-38
2023/10/18 03:03:21;;;;;;;7.13;5.67;;;;;;;;;;5133083;27;20669;-38
2023/10/18 03:05:49;;;;;;;9.53;7.10;;;;;;;;;;5126047;27;20252;-41
2023/10/18 03:08:20;;;;;;;9.00;6.40;;;;;;;;;;5122280;28;20249;-38
2023/10/18 03:10:51;;;;;;;9.23;6.37;;;;;;;;;;5133769;27;20207;-38
2023/10/18 03:13:23;;;;;;;12.03;7.90;;;;;;;;;;5121401;27;20560;-35
2023/10/18 03:16:04;;;;;;;10.40;7.77;;;;;;;;;;5129661;28;20221;-38
2023/10/18 03:18:34;;;;;;;10.10;8.00;;;;;;;;;;5140603;27;20632;-38
2023/10/18 03:21:05;;;;;;;9.60;7.83;;;;;;;;;;5131753;27;20476;-39
2023/10/18 03:23:32;;;;;;;9.47;7.37;;;;;;;;;;5134193;27;20719;-40
2023/10/18 03:26:00;;;;;;;7.47;5.83;;;;;;;;;;5138394;27;20202;-38
2023/10/18 03:28:34;;;;;;;8.90;6.83;;;;;;;;;;5125004;27;20224;-37
2023/10/18 03:31:04;;;;;;;11.37;7.50;;;;;;;;;;5132283;27;20203;-39
2023/10/18 03:33:34;;;;;;;7.13;5.63;;;;;;;;;;5132315;27;20286;-41
2023/10/18 03:36:06;;;;;;;6.80;6.10;;;;;;;;;;5116777;28;20252;-39
2023/10/18 03:38:39;;;;;;;6.73;5.97;;;;;;;;;;5126541;27;20222;-36
2023/10/18 03:41:10;;;;;;;8.67;7.20;;;;;;;;;;5119916;27;20199;-36
2023/10/18 03:43:38;;;;;;;15.07;8.60;;;;;;;;;;5122014;27;20685;-37
2023/10/18 03:46:18;;;;;;;7.53;5.93;;;;;;;;;;5130272;27;20234;-41
2023/10/18 03:48:52;;;;;;;10.17;7.40;;;;;;;;;;5126847;27;20302;-40
2023/10/18 03:51:20;;;;;;;7.77;6.87;;;;;;;;;;5127439;27;20211;-35
2023/10/18 03:53:52;;;;;;;9.43;7.53;;;;;;;;;;5133382;27;20263;-42
2023/10/18 03:56:21;;;;;;;7.73;6.03;;;;;;;;;;5131092;27;20209;-37
2023/10/18 03:59:00;;;;;;;10.03;7.23;;;;;;;;;;5127353;27;20222;-38
2023/10/18 04:01:28;;;;;;;10.57;7.53;;;;;;;;;;5129249;27;20214;-38
2023/10/18 04:03:58;;;;;;;10.73;7.97;;;;;;;;;;5131771;27;20206;-37
2023/10/18 04:06:29;;;;;;;8.53;6.30;;;;;;;;;;5123293;27;20267;-42
2023/10/18 04:09:13;;;;;;;6.47;5.63;;;;;;;;;;5131667;27;20218;-38
2023/10/18 04:11:41;;;;;;;9.87;7.00;;;;;;;;;;5127567;27;20204;-41
2023/10/18 04:14:10;;;;;;;8.17;6.63;;;;;;;;;;5128398;27;20211;-40
2023/10/18 04:16:37;;;;;;;8.33;6.80;;;;;;;;;;5143578;27;20222;-37
2023/10/18 04:19:08;;;;;;;7.17;6.00;;;;;;;;;;5136126;27;20227;-37
2023/10/18 04:21:35;;;;;;;8.40;6.27;;;;;;;;;;5131292;27;20218;-38
2023/10/18 04:24:04;;;;;;;6.73;5.83;;;;;;;;;;5132332;27;20294;-36
2023/10/18 04:26:31;;;;;;;7.47;5.80;;;;;;;;;;5136874;27;20223;-39
2023/10/18 04:29:01;;;;;;;10.80;8.03;;;;;;;;;;5127994;27;20698;-34
2023/10/18 04:31:29;;;;;;;7.07;6.00;;;;;;;;;;5132055;27;20199;-38
2023/10/18 04:33:57;;;;;;;9.30;6.73;;;;;;;;;;5139425;27;20207;-38
2023/10/18 04:36:27;;;;;;;7.63;6.57;;;;;;;;;;5131124;27;20252;-38
2023/10/18 04:38:56;;;;;;;9.80;8.00;;;;;;;;;;5131614;27;20597;-37
2023/10/18 04:41:31;;;;;;;12.23;8.23;;;;;;;;;;5132162;27;20207;-42
2023/10/18 04:44:05;;;;;;;7.77;6.53;;;;;;;;;;5127035;27;20255;-36
2023/10/18 04:46:35;;;;;;;10.73;7.70;;;;;;;;;;5134811;27;20200;-38
2023/10/18 04:49:23;;;;;;;12.70;7.97;;;;;;;;;;5134286;27;20275;-36
2023/10/18 04:51:54;;;;;;;11.07;8.60;;;;;;;;;;5134781;27;20200;-39
2023/10/18 04:54:35;;;;;;;10.73;8.13;;;;;;;;;;5133518;27;20240;-41
2023/10/18 04:57:04;;;;;;;8.80;6.57;;;;;;;;;;5130881;27;20199;-37
2023/10/18 04:59:39;;;;;;;8.73;6.30;;;;;;;;;;5128017;27;20228;-37
2023/10/18 05:02:16;;;;;;;13.60;9.60;;;;;;;;;;5147806;27;20210;-36
2023/10/18 05:04:42;;;;;;;12.23;9.57;;;;;;;;;;5138917;27;20293;-33
2023/10/18 05:07:15;;;;;;;11.03;9.17;;;;;;;;;;5132222;27;20199;-36
2023/10/18 05:09:41;;;;;;;11.10;8.20;;;;;;;;;;5127651;27;20278;-39
2023/10/18 05:12:16;;;;;;;12.30;9.60;;;;;;;;;;5137008;27;20204;-41
2023/10/18 05:14:43;;;;;;;8.80;6.63;;;;;;;;;;5124833;27;20227;-37
2023/10/18 05:17:17;;;;;;;11.43;8.77;;;;;;;;;;5140370;27;20247;-38
2023/10/18 05:19:45;;;;;;;10.43;7.57;;;;;;;;;;5137376;27;20235;-37
2023/10/18 05:22:19;;;;;;;9.07;7.10;;;;;;;;;;5130719;27;20214;-42
2023/10/18 05:24:54;;;;;;;12.33;8.37;;;;;;;;;;5135772;27;20285;-37
2023/10/18 05:27:24;;;;;;;12.53;9.00;;;;;;;;;;5133913;27;20195;-37
2023/10/18 05:29:54;;;;;;;13.17;9.07;;;;;;;;;;5138239;27;20218;-34
2023/10/18 05:32:47;;;;;;;12.87;9.17;;;;;;;;;;5133270;27;20195;-35
2023/10/18 05:35:26;;;;;;;9.80;8.07;;;;;;;;;;5134245;27;20285;-39
2023/10/18 05:37:59;;;;;;;12.77;10.53;;;;;;;;;;5125672;27;20205;-36
2023/10/18 05:40:56;;;;;;;11.27;9.13;;;;;;;;;;5139462;27;20214;-35
2023/10/18 05:43:22;;;;;;;12.17;8.77;;;;;;;;;;5122113;27;20257;-37
2023/10/18 05:45:50;;;;;;;12.77;9.43;;;;;;;;;;5140359;27;20196;-34
2023/10/18 05:48:22;;;;;;;15.00;9.33;;;;;;;;;;5138778;27;20199;-38
2023/10/18 05:50:56;;;;;;;14.20;10.30;;;;;;;;;;5125587;27;20223;-38
2023/10/18 05:53:28;;;;;;;13.43;10.20;;;;;;;;;;5131804;27;20200;-40
2023/10/18 05:55:55;;;;;;;11.37;8.47;;;;;;;;;;5143689;27;20214;-36
2023/10/18 05:58:26;;;;;;;11.33;8.87;;;;;;;;;;5122125;27;20202;-39
2023/10/18 06:00:55;;;;;;;12.93;8.77;;;;;;;;;;5133698;27;20196;-36
2023/10/18 06:03:25;;;;;;;14.80;10.20;;;;;;;;;;5140185;27;20195;-36
2023/10/18 06:05:55;;;;;;;11.87;9.07;;;;;;;;;;5126025;27;20199;-42
2023/10/18 06:08:23;;;;;;;10.47;8.57;;;;;;;;;;5144340;27;20198;-37
2023/10/18 06:10:55;;;;;;;13.10;9.63;;;;;;;;;;5133256;27;20199;-37
2023/10/18 06:13:22;;;;;;;11.20;8.70;;;;;;;;;;5118216;27;20204;-33
2023/10/18 06:15:51;;;;;;;13.30;9.80;;;;;;;;;;5133017;27;20202;-38
2023/10/18 06:18:26;;;;;;;12.67;9.90;;;;;;;;;;5134907;27;20226;-39
2023/10/18 06:20:58;;;;;;;13.17;10.23;;;;;;;;;;5132018;27;20293;-40
2023/10/18 06:23:40;;;;;;;12.20;9.23;;;;;;;;;;5124742;27;20260;-36
2023/10/18 06:28:54;;;;;;;14.60;10.83;;;;;;;;;;5126853;27;20215;-34
2023/10/18 06:31:21;;;;;;;12.60;9.80;;;;;;;;;;5127182;27;20199;-35
2023/10/18 06:33:54;;;;;;;16.13;10.50;;;;;;;;;;5139212;27;20218;-36
2023/10/18 06:36:21;;;;;;;17.13;10.40;;;;;;;;;;5127490;27;20207;-40
2023/10/18 06:38:50;;;;;;;14.10;10.90;;;;;;;;;;5125586;27;20227;-38
2023/10/18 06:41:20;;;;;;;13.83;9.77;;;;;;;;;;5136658;27;20306;-36
2023/10/18 06:43:47;;;;;;;16.43;11.67;;;;;;;;;;5125775;27;20199;-40
2023/10/18 06:46:22;;;;;;;12.57;9.13;;;;;;;;;;5136031;27;20475;-35
2023/10/18 06:48:51;;;;;;;13.97;10.67;;;;;;;;;;5131162;27;20319;-33
2023/10/18 06:51:18;;;;;;;15.10;11.17;;;;;;;;;;5123935;27;20594;-36
2023/10/18 06:53:50;;;;;;;14.50;10.60;;;;;;;;;;5138429;27;20210;-40
2023/10/18 06:56:21;;;;;;;14.77;12.00;;;;;;;;;;5148984;27;20211;-39
2023/10/18 06:58:48;;;;;;;16.33;11.27;;;;;;;;;;5120467;27;20234;-36
2023/10/18 07:01:19;;;;;;;15.13;10.97;;;;;;;;;;5131330;27;20261;-33
2023/10/18 07:03:46;;;;;;;15.27;11.70;;;;;;;;;;5131454;27;20252;-40
2023/10/18 07:06:25;;;;;;;15.13;11.47;;;;;;;;;;5129696;28;20195;-36
2023/10/18 07:08:52;;;;;;;16.13;11.53;;;;;;;;;;5128279;27;20226;-36
2023/10/18 07:11:22;;;;;;;16.43;10.83;;;;;;;;;;5135710;27;20199;-38
2023/10/18 07:13:50;;;;;;;16.37;11.50;;;;;;;;;;5122913;27;20231;-34
2023/10/18 07:16:25;;;;;;;15.60;11.23;;;;;;;;;;5135214;27;20211;-37
2023/10/18 07:19:06;;;;;;;14.47;10.43;;;;;;;;;;5146494;27;20222;-35
2023/10/18 07:21:33;;;;;;;16.20;11.13;;;;;;;;;;5122477;27;20227;-38
2023/10/18 07:24:09;;;;;;;14.57;10.97;;;;;;;;;;5124948;27;20415;-38
2023/10/18 07:26:37;;;;;;;13.93;9.23;;;;;;;;;;5136314;27;20251;-42
2023/10/18 07:29:06;;;;;;;13.97;10.20;;;;;;;;;;5128141;27;20211;-38
2023/10/18 07:31:38;;;;;;;12.77;10.03;;;;;;;;;;5136599;27;20286;-44
2023/10/18 07:34:07;;;;;;;17.73;11.47;;;;;;;;;;5127903;27;20209;-40
2023/10/18 07:36:37;;;;;;;13.10;9.93;;;;;;;;;;5131364;27;20321;-38
2023/10/18 07:39:04;;;;;;;16.00;11.23;;;;;;;;;;5131063;27;20267;-43
2023/10/18 07:41:34;;;;;;;14.43;10.23;;;;;;;;;;5135986;27;20195;-43
2023/10/18 07:44:05;;;;;;;16.13;10.30;;;;;;;;;;5125045;27;21100;-40
2023/10/18 07:46:34;;;;;;;8.90;6.77;;;;;;;;;;5131778;27;20290;-37
2023/10/18 07:49:07;;;;;;;14.13;11.10;;;;;;;;;;5135404;27;20223;-34
2023/10/18 07:51:34;;;;;;;16.13;11.27;;;;;;;;;;5126922;27;20285;-35
2023/10/18 07:54:02;;;;;;;15.10;11.50;;;;;;;;;;5135618;27;20246;-35
2023/10/18 07:56:31;;;;;;;12.33;9.17;;;;;;;;;;5136386;27;20582;-38
2023/10/18 07:59:27;;;;;;;13.07;10.40;;;;;;;;;;5119586;27;20246;-35
2023/10/18 08:02:09;;;;;;;14.73;10.30;;;;;;;;;;5134037;27;20214;-38
2023/10/18 08:04:37;;;;;;;14.17;10.13;;;;;;;;;;5133656;27;20636;-34
2023/10/18 08:07:04;;;;;;;12.80;9.57;;;;;;;;;;5134267;27;20204;-38
2023/10/18 08:09:31;;;;;;;6.10;5.10;;;;;;;;;;5134799;27;20215;-36
2023/10/18 08:12:05;;;;;;;15.27;10.27;;;;;;;;;;5131570;27;20572;-42
2023/10/18 08:14:33;;;;;;;11.70;7.67;;;;;;;;;;5134589;27;20215;-40
2023/10/18 08:17:09;;;;;;;10.27;7.97;;;;;;;;;;5136145;27;20493;-38
2023/10/18 08:19:44;;;;;;;7.90;6.33;;;;;;;;;;5134571;27;20219;-38
2023/10/18 08:22:23;;;;;;;10.60;7.93;;;;;;;;;;5131313;27;20475;-36
2023/10/18 08:24:51;;;;;;;12.40;9.43;;;;;;;;;;5136776;27;20472;-39
2023/10/18 08:27:18;;;;;;;10.60;8.27;;;;;;;;;;5131313;27;20205;-35
2023/10/18 08:29:47;;;;;;;10.07;7.53;;;;;;;;;;5131908;27;20223;-38
2023/10/18 08:32:16;;;;;;;12.40;8.87;;;;;;;;;;5137085;27;20199;-40
2023/10/18 08:34:44;;;;;;;13.07;8.37;;;;;;;;;;5134491;27;20211;-37
2023/10/18 08:37:13;;;;;;;11.83;8.67;;;;;;;;;;5126976;27;20196;-38
2023/10/18 08:39:41;;;;;;;12.00;8.80;;;;;;;;;;5127194;27;20229;-37
2023/10/18 08:42:10;;;;;;;9.43;7.43;;;;;;;;;;5129928;27;20757;-39
2023/10/18 08:44:39;;;;;;;9.53;8.20;;;;;;;;;;5132548;27;20685;-38
2023/10/18 08:47:12;;;;;;;11.53;8.33;;;;;;;;;;5134389;27;20203;-38
2023/10/18 08:49:50;;;;;;;9.50;7.53;;;;;;;;;;5142915;27;20227;-39
2023/10/18 08:52:20;;;;;;;10.37;7.37;;;;;;;;;;5123660;27;20202;-40
2023/10/18 08:54:48;;;;;;;10.53;7.40;;;;;;;;;;5140668;27;20239;-40
2023/10/18 08:57:17;;;;;;;10.00;7.63;;;;;;;;;;5130341;27;20204;-36
2023/10/18 08:59:46;;;;;;;11.03;8.57;;;;;;;;;;5130100;27;20303;-39
2023/10/18 09:02:13;;;;;;;10.97;8.90;;;;;;;;;;5134473;27;20199;-35
2023/10/18 09:04:44;;;;;;;10.93;8.60;;;;;;;;;;5140447;27;20206;-40
2023/10/18 09:07:42;;;;;;;9.30;7.80;;;;;;;;;;5131575;27;20562;-39
2023/10/18 09:10:13;;;;;;;9.03;7.30;;;;;;;;;;5131411;27;20339;-36
2023/10/18 09:15:29;;;;;;;9.07;7.40;;;;;;;;;;5093054;27;20278;-43
2023/10/18 09:17:56;;;;;;;11.27;8.07;;;;;;;;;;5143542;27;20265;-37
2023/10/18 09:20:26;;;;;;;11.20;7.83;;;;;;;;;;5136550;27;20254;-40
2023/10/18 09:23:01;;;;;;;7.87;6.70;;;;;;;;;;5125999;27;20208;-40
2023/10/18 09:25:28;;;;;;;11.97;7.67;;;;;;;;;;5135162;27;20202;-40
2023/10/18 09:28:07;;;;;;;9.40;7.97;;;;;;;;;;5124009;27;20519;-39
2023/10/18 09:30:36;;;;;;;11.00;7.83;;;;;;;;;;5135924;27;20383;-37
2023/10/18 09:33:04;;;;;;;8.77;6.20;;;;;;;;;;5133501;27;20210;-37
2023/10/18 09:35:31;;;;;;;8.40;6.40;;;;;;;;;;5141985;27;20228;-38
2023/10/18 09:38:07;;;;;;;7.73;6.83;;;;;;;;;;5125233;27;20214;-43
2023/10/18 09:40:38;;;;;;;8.30;7.23;;;;;;;;;;5133557;27;20211;-38
2023/10/18 09:43:05;;;;;;;8.10;6.60;;;;;;;;;;5134473;27;20311;-36
2023/10/18 09:45:33;;;;;;;7.67;6.20;;;;;;;;;;5132903;27;20203;-41
2023/10/18 09:48:01;;;;;;;7.57;6.50;;;;;;;;;;5132076;27;20219;-33
2023/10/18 09:50:31;;;;;;;6.03;3.93;;;;;;;;;;5143160;27;20215;-37
2023/10/18 09:52:58;;;;;;;8.67;6.50;;;;;;;;;;5122823;27;20261;-37
2023/10/18 09:55:27;;;;;;;6.03;4.97;;;;;;;;;;5127244;27;20206;-38
2023/10/18 09:58:02;;;;;;;7.00;5.63;;;;;;;;;;5134538;27;20213;-37
2023/10/18 10:00:30;;;;;;;7.30;5.63;;;;;;;;;;5129939;27;20223;-34
2023/10/18 10:02:58;;;;;;;5.87;5.00;;;;;;;;;;5150511;27;20210;-39
2023/10/18 10:05:26;;;;;;;7.47;6.10;;;;;;;;;;5133208;27;20211;-35
2023/10/18 10:07:55;;;;;;;6.67;5.47;;;;;;;;;;5124176;27;20195;-37
2023/10/18 10:10:34;;;;;;;7.63;5.97;;;;;;;;;;5132907;27;20226;-41
2023/10/18 10:13:08;;;;;;;7.07;5.77;;;;;;;;;;5133018;27;20235;-35
2023/10/18 10:15:37;;;;;;;6.43;4.93;;;;;;;;;;5128277;27;20544;-40
2023/10/18 10:18:06;;;;;;;6.70;5.30;;;;;;;;;;5134994;27;20271;-35
2023/10/18 10:20:40;;;;;;;6.97;5.67;;;;;;;;;;5139681;27;20258;-35
2023/10/18 10:23:14;;;;;;;7.57;5.50;;;;;;;;;;5127272;27;20648;-38
2023/10/18 10:25:48;;;;;;;7.90;6.47;;;;;;;;;;5133409;27;20195;-34
2023/10/18 10:28:37;;;;;;;7.50;5.80;;;;;;;;;;5120818;27;20297;-38
2023/10/18 10:31:06;;;;;;;9.47;5.73;;;;;;;;;;5134591;27;20209;-41
2023/10/18 10:33:48;;;;;;;6.67;4.93;;;;;;;;;;5133023;27;20252;-39
2023/10/18 10:36:16;;;;;;;8.07;6.30;;;;;;;;;;5129555;27;20227;-42
2023/10/18 10:38:43;;;;;;;5.87;5.27;;;;;;;;;;5126641;27;20227;-38
2023/10/18 10:41:20;;;;;;;7.33;6.13;;;;;;;;;;5132063;27;20212;-37
2023/10/18 10:44:22;;;;;;;5.60;4.90;;;;;;;;;;5115092;27;20207;-37
2023/10/18 10:46:53;;;;;;;6.13;5.37;;;;;;;;;;5104633;27;20992;-36
2023/10/18 10:49:41;;;;;;;7.90;5.60;;;;;;;;;;5129345;27;20219;-36
2023/10/18 10:52:09;;;;;;;8.70;5.47;;;;;;;;;;5120398;27;20210;-35
2023/10/18 10:54:37;;;;;;;7.13;5.80;;;;;;;;;;5127851;27;20206;-38
2023/10/18 10:57:08;;;;;;;7.07;5.90;;;;;;;;;;5127188;27;20203;-36
2023/10/18 10:59:41;;;;;;;6.90;5.53;;;;;;;;;;5122996;27;20554;-41
2023/10/18 11:02:09;;;;;;;7.37;6.00;;;;;;;;;;5131174;27;21557;-38
2023/10/18 11:04:50;;;;;;;8.10;6.13;;;;;;;;;;5133259;27;20200;-36
2023/10/18 11:07:22;;;;;;;6.30;5.53;;;;;;;;;;5123574;27;20217;-37
2023/10/18 11:09:50;;;;;;;6.63;5.93;;;;;;;;;;5131314;27;20308;-35
2023/10/18 11:12:18;;;;;;;6.87;5.30;;;;;;;;;;5127376;28;20283;-37
2023/10/18 11:14:50;;;;;;;6.03;3.87;;;;;;;;;;5117946;28;20214;-41
2023/10/18 11:17:18;;;;;;;6.07;5.13;;;;;;;;;;5139664;27;20199;-39
2023/10/18 11:19:51;;;;;;;6.30;4.73;;;;;;;;;;5134687;27;20223;-37
2023/10/18 11:22:19;;;;;;;5.37;4.73;;;;;;;;;;5115866;27;20211;-39
2023/10/18 11:24:49;;;;;;;7.57;5.73;;;;;;;;;;5128458;27;20211;-34
2023/10/18 11:27:18;;;;;;;6.47;5.77;;;;;;;;;;5117589;27;20235;-37
2023/10/18 11:29:46;;;;;;;6.03;5.23;;;;;;;;;;5120245;28;20249;-40
2023/10/18 11:32:18;;;;;;;7.70;5.67;;;;;;;;;;5138619;27;20290;-34
2023/10/18 11:34:46;;;;;;;7.77;5.77;;;;;;;;;;5131453;27;20196;-38
2023/10/18 11:37:30;;;;;;;7.47;6.57;;;;;;;;;;5130842;27;20214;-33
2023/10/18 11:39:57;;;;;;;6.03;5.20;;;;;;;;;;5142051;27;20223;-36
2023/10/18 11:42:26;;;;;;;8.50;5.83;;;;;;;;;;5136067;27;20260;-37
2023/10/18 11:44:57;;;;;;;8.13;6.37;;;;;;;;;;5115846;27;20199;-35
2023/10/18 11:47:24;;;;;;;8.30;5.03;;;;;;;;;;5147426;27;20684;-39
2023/10/18 11:49:54;;;;;;;10.10;6.23;;;;;;;;;;5140221;27;20277;-40
2023/10/18 11:52:22;;;;;;;8.63;5.97;;;;;;;;;;5121984;27;20233;-39
2023/10/18 11:54:52;;;;;;;7.13;5.73;;;;;;;;;;5137589;27;20211;-41
2023/10/18 11:57:30;;;;;;;9.03;6.93;;;;;;;;;;5120111;28;20200;-38
2023/10/18 12:00:14;;;;;;;8.63;6.57;;;;;;;;;;5135608;27;21089;-39
2023/10/18 12:02:43;;;;;;;5.00;3.90;;;;;;;;;;5144044;27;20208;-36
2023/10/18 12:05:14;;;;;;;6.60;5.60;;;;;;;;;;5125045;27;20282;-36
2023/10/18 12:07:44;;;;;;;8.97;6.93;;;;;;;;;;5132160;27;20207;-36
2023/10/18 12:10:16;;;;;;;7.40;6.53;;;;;;;;;;5134765;27;20223;-39
2023/10/18 12:12:43;;;;;;;6.67;4.93;;;;;;;;;;5135242;27;20302;-37
2023/10/18 12:15:15;;;;;;;7.80;6.10;;;;;;;;;;5134586;27;20207;-39
2023/10/18 12:17:42;;;;;;;7.13;5.73;;;;;;;;;;5135561;27;20203;-35
2023/10/18 12:20:12;;;;;;;8.60;6.27;;;;;;;;;;5133203;27;20268;-36
2023/10/18 12:22:42;;;;;;;5.13;4.17;;;;;;;;;;5125634;27;20235;-34
2023/10/18 12:25:12;;;;;;;7.73;6.50;;;;;;;;;;5135991;27;20203;-41
2023/10/18 12:27:50;;;;;;;7.00;6.30;;;;;;;;;;5140303;27;20298;-37
2023/10/18 12:30:27;;;;;;;9.67;6.37;;;;;;;;;;5134311;27;20276;-33
2023/10/18 12:32:55;;;;;;;9.40;6.73;;;;;;;;;;5135633;27;20248;-36
2023/10/18 12:35:28;;;;;;;6.73;5.77;;;;;;;;;;5135880;27;20203;-36
2023/10/18 12:37:56;;;;;;;8.93;6.97;;;;;;;;;;5125482;27;20200;-35
2023/10/18 12:40:30;;;;;;;7.40;5.70;;;;;;;;;;5139816;27;20245;-40
2023/10/18 12:43:00;;;;;;;9.30;6.70;;;;;;;;;;5134561;27;20271;-38
2023/10/18 12:45:27;;;;;;;9.60;7.53;;;;;;;;;;5128411;27;20279;-40
2023/10/18 12:47:55;;;;;;;8.13;5.93;;;;;;;;;;5136765;27;20211;-36
2023/10/18 12:50:27;;;;;;;8.77;6.83;;;;;;;;;;5124653;27;20224;-39
2023/10/18 12:53:06;;;;;;;6.87;5.57;;;;;;;;;;5132437;27;20203;-40
2023/10/18 12:55:36;;;;;;;9.90;6.33;;;;;;;;;;5138024;27;20205;-38
2023/10/18 12:58:06;;;;;;;8.57;6.50;;;;;;;;;;5124104;27;20215;-39
2023/10/18 13:00:42;;;;;;;12.03;8.77;;;;;;;;;;5134566;27;20239;-34
2023/10/18 13:03:32;;;;;;;10.10;7.10;;;;;;;;;;5132674;27;20282;-41
2023/10/18 13:05:59;;;;;;;8.90;7.50;;;;;;;;;;5140376;27;20227;-32
2023/10/18 13:08:27;;;;;;;9.03;6.57;;;;;;;;;;5132206;27;20227;-39
2023/10/18 13:13:39;;;;;;;8.77;7.20;;;;;;;;;;5128800;27;20210;-34
2023/10/18 13:16:13;;;;;;;8.93;7.47;;;;;;;;;;5126522;27;20199;-40
2023/10/18 13:18:40;;;;;;;10.90;7.17;;;;;;;;;;5143630;27;20299;-39
2023/10/18 13:21:12;;;;;;;9.30;7.47;;;;;;;;;;5138706;27;20272;-38
2023/10/18 13:23:44;;;;;;;10.13;7.73;;;;;;;;;;5132970;27;20229;-36
2023/10/18 13:26:12;;;;;;;8.83;7.13;;;;;;;;;;5143259;27;20251;-41
2023/10/18 13:28:51;;;;;;;8.10;6.80;;;;;;;;;;5134876;27;20328;-40
2023/10/18 13:31:22;;;;;;;8.83;6.70;;;;;;;;;;5142812;27;20227;-35
2023/10/18 13:33:52;;;;;;;8.03;5.93;;;;;;;;;;5133717;27;20230;-35
2023/10/18 13:36:21;;;;;;;8.93;6.83;;;;;;;;;;5144574;27;20218;-32
2023/10/18 13:38:49;;;;;;;8.13;6.80;;;;;;;;;;5126224;27;20241;-38
2023/10/18 13:41:17;;;;;;;12.40;6.57;;;;;;;;;;5150231;27;20219;-40
2023/10/18 13:43:44;;;;;;;8.33;6.87;;;;;;;;;;5132879;27;20199;-34
2023/10/18 13:46:18;;;;;;;9.73;6.67;;;;;;;;;;5132235;27;20225;-33
2023/10/18 13:48:46;;;;;;;11.17;7.27;;;;;;;;;;5132830;27;20235;-36
2023/10/18 13:51:13;;;;;;;9.93;7.17;;;;;;;;;;5132135;27;20206;-35
2023/10/18 13:53:42;;;;;;;9.67;7.17;;;;;;;;;;5133612;27;20208;-34
2023/10/18 13:56:12;;;;;;;8.07;6.80;;;;;;;;;;5133110;27;20199;-35
2023/10/18 13:58:40;;;;;;;13.63;7.97;;;;;;;;;;5116007;27;20233;-37
2023/10/18 14:01:07;;;;;;;10.10;7.67;;;;;;;;;;5121659;27;20310;-38
2023/10/18 14:03:37;;;;;;;10.90;7.53;;;;;;;;;;5132854;27;20199;-35
2023/10/18 14:06:07;;;;;;;8.00;7.07;;;;;;;;;;5137663;27;20219;-35
2023/10/18 14:08:34;;;;;;;10.60;7.30;;;;;;;;;;5146089;27;20222;-34
2023/10/18 14:11:04;;;;;;;10.90;8.07;;;;;;;;;;5126007;27;20214;-36
2023/10/18 14:13:32;;;;;;;11.23;7.13;;;;;;;;;;5121239;27;20233;-37
2023/10/18 14:15:59;;;;;;;10.10;7.20;;;;;;;;;;5124899;27;20260;-36
2023/10/18 14:18:27;;;;;;;9.23;7.10;;;;;;;;;;5131957;27;20209;-33
2023/10/18 14:20:54;;;;;;;8.63;6.87;;;;;;;;;;5125594;27;20233;-35
2023/10/18 14:23:27;;;;;;;8.30;6.33;;;;;;;;;;5125819;27;20271;-37
2023/10/18 14:25:54;;;;;;;7.87;6.30;;;;;;;;;;5126543;27;20203;-39
2023/10/18 14:28:22;;;;;;;7.00;5.83;;;;;;;;;;5121019;27;20208;-35
2023/10/18 14:30:51;;;;;;;8.43;6.63;;;;;;;;;;5129991;27;20214;-41
2023/10/18 14:33:19;;;;;;;7.90;6.63;;;;;;;;;;5125141;27;20639;-33
2023/10/18 14:35:47;;;;;;;7.13;5.10;;;;;;;;;;5130973;27;20203;-33
2023/10/18 14:38:14;;;;;;;6.63;5.30;;;;;;;;;;5141344;27;20218;-40
2023/10/18 14:40:44;;;;;;;9.47;6.37;;;;;;;;;;5124570;27;20218;-39
2023/10/18 14:43:12;;;;;;;9.07;5.70;;;;;;;;;;5119514;27;20668;-37
2023/10/18 14:45:41;;;;;;;6.57;5.30;;;;;;;;;;5127958;27;20211;-40
2023/10/18 14:48:09;;;;;;;7.70;4.87;;;;;;;;;;5132350;27;20207;-35
2023/10/18 14:50:37;;;;;;;9.73;7.00;;;;;;;;;;5122315;27;20227;-37
2023/10/18 14:53:07;;;;;;;9.57;6.67;;;;;;;;;;5131075;27;20210;-37
2023/10/18 14:55:34;;;;;;;9.53;7.30;;;;;;;;;;5130636;27;20202;-36
2023/10/18 14:58:03;;;;;;;9.50;7.10;;;;;;;;;;5120479;27;20707;-39
2023/10/18 15:00:30;;;;;;;8.77;6.90;;;;;;;;;;5121593;27;20283;-35
2023/10/18 15:02:59;;;;;;;10.23;6.57;;;;;;;;;;5128287;27;20204;-36
2023/10/18 15:05:26;;;;;;;12.77;7.13;;;;;;;;;;5123031;27;20662;-37